Flight Track Log - Related Links

Times and Time Zones

All times are in EDT time to prevent confusion due to time zone crossing. See the N177LA flight status page for this flight to view local times or setup timezone preferences in your user account.

Time Position Orientation Groundspeed Altitude Reporting Facility
EDT Latitude Longitude Course Direction KTS MPH feet Rate Location/Type
Sat 09:34:58 AM 39.5110 -107.7410 215° Southwest 233 268 15,500  Level FlightAware ADS-B
Sat 09:35:28 AM 39.4870 -107.7600 211° Southwest 228 262 15,900 923 Climbing FlightAware ADS-B
Sat 09:36:03 AM 39.4530 -107.7880 212° Southwest 220 253 16,500 960 Climbing FlightAware ADS-B
Sat 09:36:43 AM 39.4200 -107.8150 212° Southwest 214 246 17,100 943 Climbing FlightAware ADS-B
Sat 09:37:13 AM 39.3950 -107.8350 212° Southwest 215 247 17,600 1,015 Climbing FlightAware ADS-B
Sat 09:37:48 AM 39.3650 -107.8600 213° Southwest 210 242 18,200 1,029 Climbing FlightAware ADS-B
Sat 09:38:23 AM 39.3370 -107.8820 211° Southwest 200 230 18,800 960 Climbing FlightAware ADS-B
Sat 09:39:03 AM 39.3060 -107.9080 213° Southwest 197 227 19,400 943 Climbing FlightAware ADS-B
Sat 09:39:33 AM 39.2830 -107.9270 213° Southwest 197 227 19,900 831 Climbing FlightAware ADS-B
Sat 09:40:08 AM 39.2550 -107.9490 211° Southwest 199 229 20,300 771 Climbing FlightAware ADS-B
Sat 09:40:43 AM 39.2280 -107.9710 212° Southwest 200 230 20,800 800 Climbing FlightAware ADS-B
Sat 09:41:23 AM 39.1970 -107.9960 212° Southwest 201 231 21,300 771 Climbing FlightAware ADS-B
Sat 09:41:53 AM 39.1720 -108.0160 212° Southwest 204 235 21,700 831 Climbing FlightAware ADS-B
Sat 09:42:28 AM 39.1440 -108.0380 211° Southwest 203 234 22,200 857 Climbing FlightAware ADS-B
Sat 09:43:03 AM 39.1170 -108.0600 212° Southwest 202 232 22,700 771 Climbing FlightAware ADS-B
Sat 09:43:38 AM 39.0890 -108.0830 213° Southwest 203 234 23,100 640 Climbing FlightAware ADS-B
Sat 09:44:18 AM 39.0570 -108.1090 212° Southwest 203 234 23,500 592 Climbing FlightAware ADS-B
Sat 09:44:49 AM 39.0320 -108.1290 212° Southwest 208 239 23,800 636 Climbing FlightAware ADS-B
Sat 09:45:24 AM 39.0040 -108.1520 213° Southwest 212 244 24,200 600 Climbing FlightAware ADS-B
Sat 09:45:59 AM 38.9750 -108.1750 212° Southwest 212 244 24,500 600 Climbing FlightAware ADS-B
Sat 09:46:34 AM 38.9450 -108.1990 212° Southwest 211 243 24,900 600 Climbing FlightAware ADS-B
Sat 09:47:09 AM 38.9160 -108.2220 212° Southwest 209 241 25,200 514 Climbing FlightAware ADS-B
Sat 09:47:44 AM 38.8870 -108.2450 212° Southwest 206 237 25,500 600 Climbing FlightAware ADS-B
Sat 09:48:19 AM 38.8590 -108.2680 213° Southwest 202 232 25,900 423 Climbing FlightAware ADS-B
Sat 09:48:55 AM 38.8310 -108.2900 211° Southwest 209 241 26,000 85 Climbing FlightAware ADS-B
Sat 09:49:30 AM 38.8010 -108.3140 212° Southwest 220 253 26,000  Level FlightAware ADS-B
Sat 09:50:06 AM 38.7700 -108.3390 212° Southwest 225 259 26,000  Level FlightAware ADS-B
Sat 09:50:40 AM 38.7410 -108.3620 212° Southwest 225 259 26,000  Level FlightAware ADS-B
Sat 09:51:16 AM 38.7070 -108.3890 212° Southwest 226 260 26,000  Level FlightAware ADS-B
Sat 09:51:47 AM 38.6800 -108.4110 212° Southwest 227 261 26,000  Level FlightAware ADS-B
Sat 09:52:22 AM 38.6480 -108.4360 211° Southwest 228 262 26,000  Level FlightAware ADS-B
Sat 09:52:57 AM 38.6180 -108.4590 211° Southwest 228 262 26,000  Level FlightAware ADS-B
Sat 09:53:37 AM 38.5800 -108.4890 212° Southwest 230 265 26,000  Level FlightAware ADS-B
Sat 09:54:07 AM 38.5530 -108.5110 213° Southwest 232 267 26,000  Level FlightAware ADS-B
Sat 09:54:42 AM 38.5220 -108.5360 212° Southwest 232 267 26,000  Level FlightAware ADS-B
Sat 09:55:18 AM 38.4890 -108.5620 212° Southwest 230 265 26,000  Level FlightAware ADS-B
Sat 09:55:53 AM 38.4570 -108.5870 211° Southwest 233 268 26,000  Level FlightAware ADS-B
Sat 09:56:28 AM 38.4240 -108.6130 212° Southwest 234 269 26,000  Level FlightAware ADS-B
Sat 09:57:04 AM 38.3930 -108.6370 211° Southwest 236 272 26,000  Level FlightAware ADS-B
Sat 09:57:38 AM 38.3590 -108.6640 212° Southwest 237 273 26,000  Level FlightAware ADS-B
Sat 09:58:13 AM 38.3270 -108.6890 212° Southwest 236 272 26,000  Level FlightAware ADS-B
Sat 09:58:58 AM 38.2850 -108.7220 212° Southwest 236 272 26,000  Level FlightAware ADS-B
Sat 09:59:28 AM 38.2570 -108.7440 212° Southwest 237 273 26,000  Level FlightAware ADS-B
Sat 10:00:09 AM 38.2220 -108.7710 211° Southwest 237 273 26,000  Level FlightAware ADS-B
Sat 10:00:39 AM 38.1900 -108.7960 212° Southwest 238 274 26,000  Level FlightAware ADS-B
Sat 10:01:11 AM 38.1630 -108.8180 213° Southwest 238 274 26,000  Level FlightAware ADS-B
Sat 10:01:51 AM 38.1230 -108.8490 211° Southwest 238 274 26,000  Level FlightAware ADS-B
Sat 10:02:32 AM 38.0850 -108.8780 211° Southwest 237 273 26,000  Level FlightAware ADS-B
Sat 10:03:08 AM 38.0520 -108.9040 212° Southwest 239 275 26,000  Level FlightAware ADS-B
Sat 10:03:43 AM 38.0170 -108.9310 211° Southwest 240 276 26,000  Level FlightAware ADS-B
Sat 10:04:19 AM 37.9840 -108.9570 212° Southwest 240 276 26,000  Level FlightAware ADS-B
Sat 10:04:54 AM 37.9500 -108.9830 211° Southwest 239 275 26,000  Level FlightAware ADS-B
Sat 10:05:24 AM 37.9230 -109.0040 212° Southwest 239 275 26,000  Level FlightAware ADS-B
Sat 10:06:01 AM 37.8890 -109.0310 212° Southwest 241 277 26,000  Level FlightAware ADS-B
Sat 10:06:37 AM 37.8530 -109.0590 212° Southwest 242 278 26,000  Level FlightAware ADS-B
Sat 10:07:12 AM 37.8200 -109.0840 211° Southwest 243 280 26,000  Level FlightAware ADS-B
Sat 10:07:48 AM 37.7840 -109.1120 212° Southwest 244 281 26,000  Level FlightAware ADS-B
Sat 10:08:23 AM 37.7520 -109.1360 211° Southwest 243 280 26,000  Level FlightAware ADS-B
Sat 10:08:58 AM 37.7180 -109.1630 212° Southwest 242 278 26,000  Level FlightAware ADS-B
Sat 10:09:31 AM 37.6850 -109.1880 211° Southwest 242 278 26,000  Level FlightAware ADS-B
Sat 10:10:06 AM 37.6510 -109.2140 211° Southwest 242 278 26,000  Level FlightAware ADS-B
Sat 10:10:43 AM 37.6180 -109.2390 211° Southwest 241 277 26,000  Level FlightAware ADS-B
Sat 10:11:17 AM 37.5850 -109.2650 212° Southwest 240 276 26,000  Level FlightAware ADS-B
Sat 10:11:53 AM 37.5500 -109.2910 210° Southwest 239 275 26,000  Level FlightAware ADS-B
Sat 10:12:33 AM 37.5170 -109.3170 212° Southwest 237 273 26,000  Level FlightAware ADS-B
Sat 10:13:13 AM 37.4850 -109.3410 211° Southwest 237 273 26,000  Level FlightAware ADS-B
Sat 10:13:49 AM 37.4560 -109.3630 211° Southwest 237 273 26,000  Level FlightAware ADS-B
Sat 10:14:26 AM 37.4260 -109.3850 210° Southwest 237 273 26,000  Level FlightAware ADS-B
Sat 10:15:03 AM 37.3970 -109.4080 212° Southwest 237 273 26,000  Level FlightAware ADS-B
Sat 10:15:39 AM 37.3680 -109.4300 211° Southwest 237 273 26,000  Level FlightAware ADS-B
Sat 10:16:15 AM 37.3390 -109.4510 210° Southwest 237 273 26,000  Level FlightAware ADS-B
Sat 10:17:03 AM 37.2672 -109.5075 210° Southwest 236 272 26,000  Level Denver Center
Sat 10:18:04 AM 37.2056 -109.5553 212° Southwest 235 270 26,000  Level Denver Center
Sat 10:19:06 AM 37.1531 -109.5956 211° Southwest 232 267 26,000  Level Denver Center
Sat 10:20:07 AM 37.1006 -109.6350 211° Southwest 230 265 26,000  Level Denver Center
Sat 10:21:09 AM 37.0394 -109.6806 211° Southwest 229 264 26,000  Level Denver Center
Sat 10:22:11 AM 36.9861 -109.7194 210° Southwest 231 266 26,000  Level Denver Center
Sat 10:23:12 AM 36.9250 -109.7658 211° Southwest 231 266 26,000  Level Denver Center
Sat 10:24:14 AM 36.8714 -109.8056 211° Southwest 233 268 26,000  Level Denver Center
Sat 10:25:15 AM 36.8128 -109.8508 212° Southwest 225 259 26,000  Level Denver Center
Sat 10:26:17 AM 36.7586 -109.8906 210° Southwest 229 264 26,000  Level Denver Center
Sat 10:27:19 AM 36.7050 -109.9303 211° Southwest 233 268 26,000  Level Denver Center
Sat 10:28:20 AM 36.6436 -109.9758 211° Southwest 233 268 26,000  Level Denver Center
Sat 10:29:22 AM 36.5900 -110.0161 211° Southwest 233 268 26,000  Level Denver Center
Sat 10:30:24 AM 36.5275 -110.0622 211° Southwest 234 269 26,000  Level Denver Center
Sat 10:31:25 AM 36.4739 -110.1017 211° Southwest 233 268 26,000  Level Denver Center
Sat 10:32:27 AM 36.4092 -110.1500 211° Southwest 237 273 26,000  Level Denver Center
Sat 10:33:29 AM 36.3517 -110.1914 210° Southwest 238 274 26,000  Level Denver Center
Sat 10:34:31 AM 36.2950 -110.2339 211° Southwest 238 274 26,000  Level Denver Center
Sat 10:35:33 AM 36.2375 -110.2747 210° Southwest 237 273 26,000  Level Denver Center
Sat 10:40:44 AM 35.9380 -110.4960 210° Southwest 234 269 26,000  Level FlightAware ADS-B
Sat 10:41:17 AM 35.9050 -110.5190 209° Southwest 235 270 26,000  Level FlightAware ADS-B
Sat 10:41:51 AM 35.8740 -110.5420 211° Southwest 235 270 26,000  Level FlightAware ADS-B
Sat 10:42:29 AM 35.8380 -110.5680 210° Southwest 235 270 26,000  Level FlightAware ADS-B
Sat 10:43:06 AM 35.8040 -110.5930 211° Southwest 235 270 26,000  Level FlightAware ADS-B
Sat 10:43:38 AM 35.7740 -110.6150 211° Southwest 235 270 26,000  Level FlightAware ADS-B
Sat 10:44:15 AM 35.7390 -110.6400 210° Southwest 234 269 26,000  Level FlightAware ADS-B
Sat 10:44:51 AM 35.7050 -110.6650 211° Southwest 233 268 26,000  Level FlightAware ADS-B
Sat 10:45:23 AM 35.6760 -110.6870 212° Southwest 235 270 26,000  Level FlightAware ADS-B
Sat 10:45:59 AM 35.6430 -110.7160 216° Southwest 234 269 26,000  Level FlightAware ADS-B
Sat 10:46:35 AM 35.6120 -110.7430 215° Southwest 234 269 26,000  Level FlightAware ADS-B
Sat 10:47:11 AM 35.5800 -110.7700 214° Southwest 236 272 26,000  Level FlightAware ADS-B
Sat 10:47:42 AM 35.5520 -110.7940 215° Southwest 238 274 26,000  Level FlightAware ADS-B
Sat 10:48:19 AM 35.5180 -110.8230 215° Southwest 239 275 26,000  Level FlightAware ADS-B
Sat 10:48:57 AM 35.4830 -110.8530 215° Southwest 242 278 26,000  Level FlightAware ADS-B
Sat 10:49:27 AM 35.4560 -110.8760 215° Southwest 243 280 26,000  Level FlightAware ADS-B
Sat 10:50:05 AM 35.4200 -110.9060 214° Southwest 245 282 26,000  Level FlightAware ADS-B
Sat 10:50:39 AM 35.3880 -110.9330 215° Southwest 244 281 26,000  Level FlightAware ADS-B
Sat 10:51:15 AM 35.3550 -110.9620 216° Southwest 244 281 26,000  Level FlightAware ADS-B
Sat 10:51:45 AM 35.3260 -110.9850 213° Southwest 242 278 26,000  Level FlightAware ADS-B
Sat 10:52:25 AM 35.2910 -111.0160 216° Southwest 241 277 26,000  Level FlightAware ADS-B
Sat 10:53:02 AM 35.2570 -111.0440 214° Southwest 240 276 26,000  Level FlightAware ADS-B
Sat 10:53:34 AM 35.2270 -111.0690 214° Southwest 239 275 26,000  Level FlightAware ADS-B
Sat 10:54:09 AM 35.1950 -111.0960 215° Southwest 237 273 26,000  Level FlightAware ADS-B
Sat 10:54:43 AM 35.1640 -111.1220 214° Southwest 239 275 26,000  Level FlightAware ADS-B
Sat 10:55:15 AM 35.1340 -111.1470 214° Southwest 240 276 26,000  Level FlightAware ADS-B
Sat 10:55:53 AM 35.1000 -111.1770 216° Southwest 240 276 26,000  Level FlightAware ADS-B
Sat 10:56:25 AM 35.0710 -111.2010 214° Southwest 239 275 26,000 -167 Level FlightAware ADS-B
Sat 10:57:05 AM 35.0350 -111.2310 214° Southwest 243 280 25,800 -583 Descending FlightAware ADS-B
Sat 10:57:37 AM 35.0040 -111.2570 214° Southwest 246 283 25,300 -971 Descending FlightAware ADS-B
Sat 10:58:13 AM 34.9710 -111.2840 214° Southwest 248 285 24,700 -1,014 Descending FlightAware ADS-B
Sat 10:58:48 AM 34.9380 -111.3120 215° Southwest 247 284 24,100 -1,029 Descending FlightAware ADS-B
Sat 10:59:23 AM 34.9060 -111.3390 215° Southwest 245 282 23,500 -1,000 Descending FlightAware ADS-B
Sat 11:00:00 AM 34.8690 -111.3690 214° Southwest 243 280 22,900 -986 Descending FlightAware ADS-B
Sat 11:00:36 AM 34.8360 -111.3970 215° Southwest 245 282 22,300 -1,029 Descending FlightAware ADS-B
Sat 11:01:10 AM 34.8040 -111.4240 215° Southwest 248 285 21,700 -971 Descending FlightAware ADS-B
Sat 11:01:44 AM 34.7720 -111.4500 214° Southwest 256 295 21,200 -1,000 Descending FlightAware ADS-B
Sat 11:02:16 AM 34.7400 -111.4770 215° Southwest 261 300 20,600 -1,114 Descending FlightAware ADS-B
Sat 11:02:54 AM 34.7020 -111.5090 215° Southwest 263 303 19,900 -1,105 Descending FlightAware ADS-B
Sat 11:03:32 AM 34.6630 -111.5410 214° Southwest 264 304 19,200 -1,083 Descending FlightAware ADS-B
Sat 11:04:06 AM 34.6290 -111.5690 214° Southwest 262 302 18,600 -1,114 Descending FlightAware ADS-B
Sat 11:04:42 AM 34.5920 -111.5990 214° Southwest 262 302 17,900 -1,147 Descending FlightAware ADS-B
Sat 11:05:14 AM 34.5600 -111.6260 215° Southwest 262 302 17,300 -1,200 Descending FlightAware ADS-B
Sat 11:05:52 AM 34.5230 -111.6570 215° Southwest 262 302 16,500 -1,217 Descending FlightAware ADS-B
Sat 11:06:23 AM 34.4910 -111.6830 214° Southwest 264 304 15,900 -1,147 Descending FlightAware ADS-B
Sat 11:07:00 AM 34.4540 -111.7140 215° Southwest 260 299 15,200 -1,151 Descending FlightAware ADS-B
Sat 11:07:36 AM 34.4190 -111.7420 213° Southwest 251 289 14,500 -1,235 Descending FlightAware ADS-B
Sat 11:08:08 AM 34.3880 -111.7680 215° Southwest 246 283 13,800 -1,235 Descending FlightAware ADS-B
Sat 11:08:44 AM 34.3550 -111.7950 214° Southwest 243 280 13,100 -1,200 Descending FlightAware ADS-B
Sat 11:09:18 AM 34.3230 -111.8210 214° Southwest 240 276 12,400 -1,167 Descending FlightAware ADS-B
Sat 11:09:56 AM 34.2870 -111.8470 211° Southwest 235 270 11,700 -1,200 Descending FlightAware ADS-B
Sat 11:10:28 AM 34.2540 -111.8590 197° South 234 269 11,000 -618 Descending FlightAware ADS-B
Sat 11:11:04 AM 34.2200 -111.8720 198° South 205 236 11,000  Level FlightAware ADS-B
Sat 11:11:40 AM 34.1870 -111.8840 197° South 191 220 11,000  Level FlightAware ADS-B
Sat 11:12:12 AM 34.1610 -111.8940 198° South 182 209 11,000 -176 Level FlightAware ADS-B
Sat 11:12:48 AM 34.1330 -111.9050 198° South 190 219 10,800 -667 Descending FlightAware ADS-B
Sat 11:13:24 AM 34.1010 -111.9180 199° South 211 243 10,200 -1,071 Descending FlightAware ADS-B
Sat 11:13:44 AM 34.0810 -111.9260 198° South 218 251 9,800 -1,067 Descending FlightAware ADS-B
Sat 11:14:09 AM 34.0580 -111.9350 198° South 223 257 9,400 -1,043 Descending FlightAware ADS-B
Sat 11:14:30 AM 34.0360 -111.9440 199° South 224 258 9,000 -1,135 Descending FlightAware ADS-B
Sat 11:14:46 AM 34.0220 -111.9500 200° South 223 257 8,700 -1,161 Descending FlightAware ADS-B
Sat 11:15:01 AM 34.0050 -111.9560 196° South 225 259 8,400 -1,077 Descending FlightAware ADS-B
Sat 11:15:25 AM 33.9820 -111.9660 200° South 227 261 8,000 -1,091 Descending FlightAware ADS-B
Sat 11:15:45 AM 33.9620 -111.9740 198° South 229 264 7,600 -1,200 Descending FlightAware ADS-B
Sat 11:16:05 AM 33.9410 -111.9820 198° South 229 264 7,200 -1,024 Descending FlightAware ADS-B
Sat 11:16:26 AM 33.9210 -111.9890 196° South 227 261 6,900 -1,091 Descending FlightAware ADS-B
Sat 11:16:49 AM 33.8960 -111.9940 189° South 229 264 6,400 -1,385 Descending FlightAware ADS-B
Sat 11:17:05 AM 33.8790 -111.9950 183° South 231 266 6,000 -1,400 Descending FlightAware ADS-B
Sat 11:17:19 AM 33.8640 -111.9950 180° South 231 266 5,700 -1,600 Descending FlightAware ADS-B
Sat 11:17:50 AM 33.8310 -111.9940 179° South 226 260 4,800 -1,440 Descending FlightAware ADS-B
Sat 11:18:09 AM 33.8120 -111.9910 173° South 221 254 4,500 -811 Descending FlightAware ADS-B
Sat 11:18:27 AM 33.7940 -111.9870 170° South 211 243 4,300 -947 Descending FlightAware ADS-B
Sat 11:18:47 AM 33.7750 -111.9840 173° South 206 237 3,900 -1,050 Descending FlightAware ADS-B
Sat 11:19:07 AM 33.7570 -111.9820 175° South 192 221 3,600 -615 Descending FlightAware ADS-B
Sat 11:19:26 AM 33.7470 -111.9820 180° South 195 224 3,500 -585 Descending FlightAware ADS-B
Sat 11:19:48 AM 33.7280 -111.9810 177° South 183 211 3,200 -977 Descending FlightAware ADS-B
Sat 11:20:09 AM 33.7050 -111.9880 194° South 162 186 2,800 -1,071 Descending FlightAware ADS-B
Sat 11:20:16 AM 33.7010 -111.9910 212° Southwest 163 188 2,700 -375 Descending FlightAware ADS-B
Sat 11:20:25 AM 33.6980 -111.9960 234° Southwest 162 186 2,700 -400 Level FlightAware ADS-B
Sat 11:20:31 AM 33.6950 -112.0030 243° Southwest 156 180 2,600 -176 Descending FlightAware ADS-B
Sat 11:20:59 AM 33.6890 -112.0220 249° West 156 180 2,600  Level FlightAware ADS-B

Login

Don't have an account? Register now (free) for customized features, flight alerts, and more!